Time;durP1;ratioP1;P1;durP2;ratioP2;P2;SDS_P1;SDS_P2;PMS_P1;PMS_P2;Temp;Humidity;BMP_temperature;BMP_pressure;BME280_temperature;BME280_humidity;BME280_pressure;Samples;Min_cycle;Max_cycle;Signal;HPM_P1;HPM_P2
2022/08/28 00:00:24;;;;;;;0.00;0.00;;;15.90;99.90;;;;;;4884763;29;20029;-81
2022/08/28 00:02:52;;;;;;;0.00;0.00;;;15.90;99.90;;;;;;4871195;29;20053;-81
2022/08/28 00:05:22;;;;;;;0.00;0.00;;;15.90;99.90;;;;;;4874833;29;20525;-81
2022/08/28 00:07:48;;;;;;;;;;;15.90;99.90;;;;;;4873052;29;20037;-81
2022/08/28 00:10:17;;;;;;;0.00;0.00;;;15.80;99.90;;;;;;4872283;29;19923;-81
2022/08/28 00:12:46;;;;;;;0.00;0.00;;;15.80;99.90;;;;;;4872950;29;20513;-81
2022/08/28 00:15:16;;;;;;;0.00;0.00;;;15.80;99.90;;;;;;4873196;29;20483;-83
2022/08/28 00:17:43;;;;;;;0.00;0.00;;;15.80;99.90;;;;;;4878600;29;20041;-82
2022/08/28 00:20:12;;;;;;;0.00;0.00;;;15.70;99.90;;;;;;4875391;29;20042;-82
2022/08/28 00:22:41;;;;;;;0.00;0.00;;;15.70;99.90;;;;;;4894228;29;20049;-82
2022/08/28 00:25:09;;;;;;;0.00;0.00;;;15.60;99.90;;;;;;4869880;29;20049;-82
2022/08/28 00:27:51;;;;;;;0.00;0.00;;;15.60;99.90;;;;;;4877655;29;20057;-81
2022/08/28 00:30:20;;;;;;;0.00;0.00;;;15.60;99.90;;;;;;4870288;29;20041;-82
2022/08/28 00:32:47;;;;;;;0.00;0.00;;;15.60;99.90;;;;;;4889611;29;20057;-81
2022/08/28 00:35:16;;;;;;;0.00;0.00;;;15.50;99.90;;;;;;4871976;29;20045;-81
2022/08/28 00:37:45;;;;;;;0.00;0.00;;;15.50;99.90;;;;;;4874294;29;20406;-81
2022/08/28 00:40:17;;;;;;;0.00;0.00;;;15.50;99.90;;;;;;4872248;29;20475;-81
2022/08/28 00:42:56;;;;;;;0.00;0.00;;;15.40;99.90;;;;;;4876507;29;20041;-81
2022/08/28 00:45:24;;;;;;;0.00;0.00;;;15.40;99.90;;;;;;4875653;29;20935;-81
2022/08/28 00:47:51;;;;;;;0.00;0.00;;;15.30;99.90;;;;;;4879767;29;20425;-82
2022/08/28 00:50:22;;;;;;;0.00;0.00;;;15.20;99.90;;;;;;4874502;29;20041;-82
2022/08/28 00:52:55;;;;;;;0.00;0.00;;;15.20;99.90;;;;;;4871778;29;20056;-80
2022/08/28 00:55:24;;;;;;;0.00;0.00;;;15.20;99.90;;;;;;4866591;29;20557;-82
2022/08/28 00:57:55;;;;;;;0.00;0.00;;;15.30;99.90;;;;;;4874803;29;20517;-82
2022/08/28 01:00:25;;;;;;;0.00;0.00;;;15.30;99.90;;;;;;4873040;29;20077;-82
2022/08/28 01:02:52;;;;;;;0.00;0.00;;;15.20;99.90;;;;;;4877011;29;20056;-80
2022/08/28 01:05:20;;;;;;;0.00;0.00;;;15.20;99.90;;;;;;4878384;29;20068;-82
2022/08/28 01:07:51;;;;;;;0.00;0.00;;;15.20;99.90;;;;;;4875895;29;20056;-82
2022/08/28 01:10:21;;;;;;;0.00;0.00;;;15.20;99.90;;;;;;4873469;29;20068;-82
2022/08/28 01:12:49;;;;;;;0.00;0.00;;;15.30;99.90;;;;;;4876234;29;20421;-80
2022/08/28 01:15:19;;;;;;;0.00;0.00;;;15.20;99.90;;;;;;4873328;29;20052;-82
2022/08/28 01:17:50;;;;;;;0.00;0.00;;;15.10;99.90;;;;;;4877894;29;20410;-82
2022/08/28 01:20:20;;;;;;;0.00;0.00;;;15.20;99.90;;;;;;4872940;29;20062;-81
2022/08/28 01:22:57;;;;;;;0.00;0.00;;;15.10;99.90;;;;;;4893077;29;20057;-81
2022/08/28 01:25:30;;;;;;;0.00;0.00;;;15.30;99.90;;;;;;4870515;29;20048;-82
2022/08/28 01:27:57;;;;;;;0.00;0.00;;;14.90;99.90;;;;;;4876988;29;20061;-81
2022/08/28 01:30:25;;;;;;;0.00;0.00;;;14.90;99.90;;;;;;4878909;29;20056;-82
2022/08/28 01:32:54;;;;;;;0.00;0.00;;;14.90;99.90;;;;;;4875148;29;20056;-81
2022/08/28 01:35:24;;;;;;;0.00;0.00;;;14.90;99.90;;;;;;4875571;29;20053;-81
2022/08/28 01:37:53;;;;;;;0.00;0.00;;;14.90;99.90;;;;;;4880482;29;20053;-82
2022/08/28 01:40:24;;;;;;;0.00;0.00;;;14.90;99.90;;;;;;4867465;29;20056;-81
2022/08/28 01:42:54;;;;;;;0.00;0.00;;;14.90;99.90;;;;;;4874596;29;20096;-81
2022/08/28 01:45:22;;;;;;;0.00;0.00;;;14.80;99.90;;;;;;4874400;29;20053;-82
2022/08/28 01:47:49;;;;;;;0.00;0.00;;;14.80;99.90;;;;;;4868353;29;20045;-82
2022/08/28 01:50:19;;;;;;;0.00;0.00;;;14.70;99.90;;;;;;4876927;29;20041;-81
2022/08/28 01:52:46;;;;;;;0.00;0.00;;;14.70;99.90;;;;;;4866658;29;20521;-81
2022/08/28 01:55:13;;;;;;;0.00;0.00;;;14.70;99.90;;;;;;4882483;29;20149;-82
2022/08/28 01:57:43;;;;;;;0.00;0.00;;;14.60;99.90;;;;;;4879294;29;20399;-82
2022/08/28 02:00:14;;;;;;;0.00;0.00;;;14.70;99.90;;;;;;4871442;29;20041;-81
2022/08/28 02:02:41;;;;;;;0.00;0.00;;;14.60;99.90;;;;;;4890172;29;20048;-82
2022/08/28 02:05:09;;;;;;;0.10;0.10;;;14.60;99.90;;;;;;4871541;29;20581;-81
2022/08/28 02:07:36;;;;;;;0.00;0.00;;;14.70;99.90;;;;;;4872354;29;20060;-81
2022/08/28 02:10:05;;;;;;;0.00;0.00;;;14.60;99.90;;;;;;4877223;29;20097;-82
2022/08/28 02:12:32;;;;;;;0.00;0.00;;;14.60;99.90;;;;;;4876607;29;20049;-81
2022/08/28 02:14:58;;;;;;;0.00;0.00;;;14.60;99.90;;;;;;4872954;29;20053;-82
2022/08/28 02:17:27;;;;;;;0.00;0.00;;;14.50;99.90;;;;;;4870575;29;20566;-82
2022/08/28 02:19:53;;;;;;;0.00;0.00;;;14.50;99.90;;;;;;4876738;29;20113;-81
2022/08/28 02:22:20;;;;;;;0.00;0.00;;;14.50;99.90;;;;;;4879590;29;20041;-81
2022/08/28 02:24:47;;;;;;;0.00;0.00;;;14.50;99.90;;;;;;4879136;29;20084;-81
2022/08/28 02:27:14;;;;;;;0.00;0.00;;;14.50;99.90;;;;;;4865522;29;20052;-81
2022/08/28 02:29:41;;;;;;;0.00;0.00;;;14.40;99.90;;;;;;4876520;29;20463;-82
2022/08/28 02:32:08;;;;;;;0.00;0.00;;;14.40;99.90;;;;;;4872875;29;20049;-81
2022/08/28 02:34:36;;;;;;;0.00;0.00;;;14.30;99.90;;;;;;4873352;29;20083;-80
2022/08/28 02:37:03;;;;;;;0.00;0.00;;;14.30;99.90;;;;;;4882837;29;20042;-82
2022/08/28 02:39:30;;;;;;;0.00;0.00;;;14.30;99.90;;;;;;4873040;29;20447;-81
2022/08/28 02:41:57;;;;;;;0.00;0.00;;;14.20;99.90;;;;;;4875683;29;20045;-82
2022/08/28 02:44:24;;;;;;;0.00;0.00;;;14.20;99.90;;;;;;4874014;29;20044;-82
2022/08/28 02:46:51;;;;;;;0.00;0.00;;;14.30;99.90;;;;;;4871467;29;20517;-82
2022/08/28 02:49:21;;;;;;;0.00;0.00;;;14.30;99.90;;;;;;4883716;29;20044;-82
2022/08/28 02:51:50;;;;;;;0.00;0.00;;;14.40;99.90;;;;;;4972091;23;20493;-83
2022/08/28 02:54:17;;;;;;;0.00;0.00;;;14.30;99.90;;;;;;4909916;29;20085;-83
2022/08/28 02:56:44;;;;;;;0.00;0.00;;;14.10;99.90;;;;;;4901295;29;20126;-84
2022/08/28 02:59:12;;;;;;;0.00;0.00;;;14.10;99.90;;;;;;4898250;29;20053;-83
2022/08/28 03:01:39;;;;;;;0.00;0.00;;;14.10;99.90;;;;;;4903792;29;20400;-82
2022/08/28 03:04:06;;;;;;;0.00;0.00;;;14.20;99.90;;;;;;4915933;29;20079;-83
2022/08/28 03:06:33;;;;;;;0.00;0.00;;;14.20;99.90;;;;;;4913167;29;20104;-82
2022/08/28 03:09:01;;;;;;;0.00;0.00;;;14.20;99.90;;;;;;4933515;29;20707;-84
2022/08/28 03:11:28;;;;;;;0.00;0.00;;;14.20;99.90;;;;;;4915550;29;20044;-84
2022/08/28 03:13:55;;;;;;;0.00;0.00;;;14.10;99.90;;;;;;4918008;29;20124;-82
2022/08/28 03:16:24;;;;;;;0.00;0.00;;;14.20;99.90;;;;;;4912221;29;20390;-84
2022/08/28 03:18:51;;;;;;;0.00;0.00;;;14.20;99.90;;;;;;4918937;29;20394;-83
2022/08/28 03:21:17;;;;;;;0.00;0.00;;;14.30;99.90;;;;;;4929691;29;20454;-85
2022/08/28 03:23:44;;;;;;;0.00;0.00;;;14.30;99.90;;;;;;4914607;29;20044;-84
2022/08/28 03:26:18;;;;;;;0.00;0.00;;;14.40;99.90;;;;;;4934217;29;20381;-85
2022/08/28 03:28:49;;;;;;;0.00;0.00;;;14.40;99.90;;;;;;4910371;29;20044;-84
2022/08/28 03:31:18;;;;;;;0.00;0.00;;;14.40;99.90;;;;;;4913170;29;20045;-83
2022/08/28 03:33:46;;;;;;;0.00;0.00;;;14.40;99.90;;;;;;4912663;29;20076;-83
2022/08/28 03:36:16;;;;;;;0.00;0.00;;;14.40;99.90;;;;;;4930483;29;20056;-83
2022/08/28 03:38:42;;;;;;;0.00;0.00;;;14.40;99.90;;;;;;4914031;29;20052;-84
2022/08/28 03:41:10;;;;;;;0.00;0.00;;;14.30;99.90;;;;;;4920518;29;20047;-80
2022/08/28 03:43:38;;;;;;;0.00;0.00;;;14.40;99.90;;;;;;4913252;29;20048;-81
2022/08/28 03:46:07;;;;;;;0.00;0.00;;;14.40;99.90;;;;;;4917254;29;20092;-83
2022/08/28 03:48:36;;;;;;;0.00;0.00;;;14.40;99.90;;;;;;4913493;29;20095;-81
2022/08/28 03:51:06;;;;;;;0.00;0.00;;;14.40;99.90;;;;;;4914510;29;20043;-83
2022/08/28 03:53:34;;;;;;;0.00;0.00;;;14.40;99.90;;;;;;4915725;29;20055;-81
2022/08/28 03:56:05;;;;;;;0.00;0.00;;;14.40;99.90;;;;;;4917813;29;20496;-82
2022/08/28 03:58:32;;;;;;;0.00;0.00;;;14.30;99.90;;;;;;4918507;29;20040;-83
2022/08/28 04:01:00;;;;;;;0.00;0.00;;;14.30;99.90;;;;;;4913075;29;20032;-83
2022/08/28 04:03:27;;;;;;;0.00;0.00;;;14.30;99.90;;;;;;4912988;29;20408;-83
2022/08/28 04:05:54;;;;;;;0.00;0.00;;;14.30;99.90;;;;;;4930608;29;20056;-85
2022/08/28 04:08:21;;;;;;;0.00;0.00;;;14.30;99.90;;;;;;4911075;29;20731;-84
2022/08/28 04:10:49;;;;;;;0.00;0.00;;;14.30;99.90;;;;;;4918320;29;20032;-82
2022/08/28 04:13:18;;;;;;;0.00;0.00;;;14.30;99.90;;;;;;4915157;29;20048;-84
2022/08/28 04:15:54;;;;;;;0.00;0.00;;;14.30;99.90;;;;;;4929365;29;20248;-83
2022/08/28 04:18:23;;;;;;;0.00;0.00;;;14.30;99.90;;;;;;4912309;29;20412;-84
2022/08/28 04:20:57;;;;;;;0.00;0.00;;;14.30;99.90;;;;;;4914316;29;20040;-84
2022/08/28 04:23:24;;;;;;;0.00;0.00;;;14.20;99.90;;;;;;4913171;29;20059;-84
2022/08/28 04:25:51;;;;;;;0.00;0.00;;;14.20;99.90;;;;;;4910196;29;20096;-84
2022/08/28 04:28:18;;;;;;;0.00;0.00;;;14.20;99.90;;;;;;4915189;29;20051;-83
2022/08/28 04:30:45;;;;;;;0.00;0.00;;;14.30;99.90;;;;;;4909895;29;20397;-83
2022/08/28 04:33:11;;;;;;;0.00;0.00;;;14.30;99.90;;;;;;4925990;29;20099;-83
2022/08/28 04:35:40;;;;;;;0.00;0.00;;;14.20;99.90;;;;;;4918158;29;20387;-82
2022/08/28 04:38:07;;;;;;;0.10;0.10;;;14.20;99.90;;;;;;4932005;29;20572;-82
2022/08/28 04:40:38;;;;;;;0.00;0.00;;;14.30;99.90;;;;;;4918026;29;20469;-81
2022/08/28 04:43:05;;;;;;;0.00;0.00;;;14.20;99.90;;;;;;4922465;29;20544;-82
2022/08/28 04:45:36;;;;;;;0.00;0.00;;;14.20;99.90;;;;;;4920536;29;20051;-83
2022/08/28 04:48:04;;;;;;;0.00;0.00;;;14.30;99.90;;;;;;4922314;29;20040;-83
2022/08/28 04:50:39;;;;;;;0.00;0.00;;;14.40;99.90;;;;;;4919549;29;20052;-83
2022/08/28 04:53:08;;;;;;;0.00;0.00;;;14.40;99.90;;;;;;4914810;29;20043;-83
2022/08/28 04:55:39;;;;;;;0.00;0.00;;;14.40;99.90;;;;;;4921389;29;20115;-83
2022/08/28 04:58:21;;;;;;;0.00;0.00;;;14.50;99.90;;;;;;4916879;29;20092;-83
2022/08/28 05:00:51;;;;;;;0.00;0.00;;;14.60;99.90;;;;;;4936200;29;20040;-83
2022/08/28 05:03:18;;;;;;;0.00;0.00;;;14.70;99.90;;;;;;4920315;29;20048;-82
2022/08/28 05:05:47;;;;;;;0.00;0.00;;;14.80;99.90;;;;;;4927500;29;20370;-83
2022/08/28 05:08:18;;;;;;;0.00;0.00;;;14.70;99.90;;;;;;4919705;29;20051;-83
2022/08/28 05:10:45;;;;;;;0.00;0.00;;;14.80;99.90;;;;;;4926578;29;20048;-82
2022/08/28 05:13:14;;;;;;;0.00;0.00;;;14.90;99.90;;;;;;4917971;29;20480;-83
2022/08/28 05:15:43;;;;;;;0.00;0.00;;;14.90;99.90;;;;;;4915602;29;20191;-83
2022/08/28 05:18:10;;;;;;;0.00;0.00;;;15.00;99.90;;;;;;4934324;29;20546;-84
2022/08/28 05:20:39;;;;;;;0.00;0.00;;;15.00;99.90;;;;;;4924608;29;20480;-84
2022/08/28 05:23:08;;;;;;;0.00;0.00;;;15.00;99.90;;;;;;4916761;29;20071;-83
2022/08/28 05:25:38;;;;;;;0.00;0.00;;;15.10;99.90;;;;;;4924155;29;20048;-84
2022/08/28 05:28:05;;;;;;;0.00;0.00;;;15.10;99.90;;;;;;4933322;29;20055;-82
2022/08/28 05:30:40;;;;;;;0.00;0.00;;;15.20;99.90;;;;;;4922735;29;20051;-84
2022/08/28 05:33:08;;;;;;;;;;;15.50;99.90;;;;;;4918886;29;20048;-83
2022/08/28 05:35:37;;;;;;;0.00;0.00;;;15.20;99.90;;;;;;4919708;29;19927;-82
2022/08/28 05:38:04;;;;;;;0.00;0.00;;;15.40;99.90;;;;;;4933094;29;20420;-83
2022/08/28 05:40:32;;;;;;;0.00;0.00;;;15.40;99.90;;;;;;4916528;29;20464;-83
2022/08/28 05:43:00;;;;;;;0.00;0.00;;;15.40;99.90;;;;;;4920200;29;20413;-84
2022/08/28 05:45:27;;;;;;;0.00;0.00;;;15.40;99.90;;;;;;4916799;29;20052;-83
2022/08/28 05:47:53;;;;;;;0.00;0.00;;;15.40;99.90;;;;;;4917852;29;20053;-83
2022/08/28 05:50:20;;;;;;;0.00;0.00;;;15.40;99.90;;;;;;4918085;29;20033;-83
2022/08/28 05:52:47;;;;;;;0.00;0.00;;;15.50;99.90;;;;;;4918604;29;20047;-84
2022/08/28 05:55:14;;;;;;;0.00;0.00;;;15.50;99.90;;;;;;4920344;29;20120;-83
2022/08/28 05:57:41;;;;;;;0.00;0.00;;;15.50;99.90;;;;;;4916302;29;20052;-84
2022/08/28 06:00:12;;;;;;;0.00;0.00;;;15.60;99.90;;;;;;4920505;29;20044;-83
2022/08/28 06:02:39;;;;;;;0.00;0.00;;;15.60;99.90;;;;;;4915181;29;20040;-83
2022/08/28 06:05:07;;;;;;;0.00;0.00;;;15.70;99.90;;;;;;4932528;29;20475;-82
2022/08/28 06:07:34;;;;;;;0.00;0.00;;;15.70;99.90;;;;;;4919891;29;20107;-82
2022/08/28 06:10:01;;;;;;;0.00;0.00;;;15.80;99.90;;;;;;4933559;29;20056;-83
2022/08/28 06:12:27;;;;;;;0.00;0.00;;;15.80;99.90;;;;;;4918738;29;20052;-83
2022/08/28 06:14:54;;;;;;;0.00;0.00;;;15.70;99.90;;;;;;4914014;29;20461;-83
2022/08/28 06:17:23;;;;;;;0.00;0.00;;;15.70;99.90;;;;;;4918929;29;20084;-82
2022/08/28 06:19:50;;;;;;;0.00;0.00;;;15.80;99.90;;;;;;4916719;29;20048;-84
2022/08/28 06:22:17;;;;;;;0.00;0.00;;;15.90;99.90;;;;;;4918206;29;20532;-83
2022/08/28 06:24:44;;;;;;;0.00;0.00;;;16.00;99.90;;;;;;4914273;29;20056;-83
2022/08/28 06:27:11;;;;;;;0.00;0.00;;;16.10;99.90;;;;;;4918024;29;20048;-83
2022/08/28 06:29:38;;;;;;;0.00;0.00;;;16.10;99.90;;;;;;4916244;29;20402;-83
2022/08/28 06:32:05;;;;;;;0.00;0.00;;;16.30;99.90;;;;;;4935116;29;20052;-84
2022/08/28 06:34:34;;;;;;;0.00;0.00;;;16.40;99.90;;;;;;4917536;29;20047;-83
2022/08/28 06:37:01;;;;;;;0.00;0.00;;;16.40;99.90;;;;;;4919260;29;20047;-83
2022/08/28 06:39:27;;;;;;;0.00;0.00;;;16.20;99.90;;;;;;4914970;29;20048;-82
2022/08/28 06:41:54;;;;;;;0.00;0.00;;;16.10;99.90;;;;;;4924690;29;20485;-82
2022/08/28 06:44:21;;;;;;;0.00;0.00;;;16.10;99.90;;;;;;4916298;29;20044;-83
2022/08/28 06:46:50;;;;;;;0.00;0.00;;;16.20;99.90;;;;;;4918074;29;20077;-83
2022/08/28 06:49:17;;;;;;;0.00;0.00;;;16.30;99.90;;;;;;4917193;29;20036;-82
2022/08/28 06:51:45;;;;;;;0.00;0.00;;;16.60;99.90;;;;;;4930793;29;20048;-82
2022/08/28 06:54:14;;;;;;;0.00;0.00;;;16.30;99.90;;;;;;4914107;29;20048;-84
2022/08/28 06:56:48;;;;;;;0.00;0.00;;;16.50;99.90;;;;;;4918258;29;20048;-82
2022/08/28 06:59:15;;;;;;;0.00;0.00;;;16.60;99.90;;;;;;4931819;29;20052;-82
2022/08/28 07:01:42;;;;;;;0.00;0.00;;;16.60;99.90;;;;;;4918930;29;20052;-84
2022/08/28 07:04:11;;;;;;;0.00;0.00;;;16.40;99.90;;;;;;4913845;29;20051;-83
2022/08/28 07:06:40;;;;;;;0.00;0.00;;;16.60;99.90;;;;;;4917800;29;20504;-83
2022/08/28 07:09:12;;;;;;;0.00;0.00;;;16.60;99.90;;;;;;4914468;29;20785;-84
2022/08/28 07:11:42;;;;;;;0.00;0.00;;;16.60;99.90;;;;;;4912961;29;20610;-83
2022/08/28 07:14:09;;;;;;;;;;;16.50;99.90;;;;;;4915857;29;20524;-84
2022/08/28 07:16:37;;;;;;;0.00;0.00;;;16.50;99.90;;;;;;4921219;29;19974;-82
2022/08/28 07:19:05;;;;;;;0.00;0.00;;;16.50;99.90;;;;;;4915678;29;20036;-83
2022/08/28 07:21:33;;;;;;;0.00;0.00;;;16.60;99.90;;;;;;4917000;29;20044;-83
2022/08/28 07:24:05;;;;;;;0.10;0.10;;;16.50;99.90;;;;;;4915269;29;20090;-84
2022/08/28 07:26:33;;;;;;;0.00;0.00;;;16.60;99.90;;;;;;4916951;29;20040;-83
2022/08/28 07:29:03;;;;;;;0.00;0.00;;;;;;;;;;4927710;29;20055;-83
2022/08/28 07:31:38;;;;;;;0.00;0.00;;;16.90;99.90;;;;;;4932727;29;20071;-83
2022/08/28 07:34:05;;;;;;;0.00;0.00;;;17.00;99.90;;;;;;4918710;29;20048;-84
2022/08/28 07:36:33;;;;;;;0.00;0.00;;;17.00;99.90;;;;;;4918894;29;20052;-84
2022/08/28 07:39:00;;;;;;;0.00;0.00;;;17.10;99.90;;;;;;4919558;29;20040;-84
2022/08/28 07:41:29;;;;;;;0.00;0.00;;;17.20;99.90;;;;;;4919224;29;20048;-82
2022/08/28 07:46:44;;;;;;;0.00;0.00;;;17.30;99.90;;;;;;4915979;29;20384;-84
2022/08/28 07:49:12;;;;;;;0.00;0.00;;;17.30;99.90;;;;;;4915048;29;20040;-83
2022/08/28 07:51:38;;;;;;;0.00;0.00;;;17.30;99.90;;;;;;4911473;29;20048;-83
2022/08/28 07:54:06;;;;;;;0.10;0.10;;;17.30;99.90;;;;;;4916451;29;20059;-83
2022/08/28 07:56:43;;;;;;;0.00;0.00;;;17.30;99.90;;;;;;4919476;29;20052;-82
2022/08/28 07:59:12;;;;;;;0.00;0.00;;;17.30;99.90;;;;;;4933985;29;20060;-83
2022/08/28 08:01:45;;;;;;;0.00;0.00;;;17.40;99.90;;;;;;4917126;29;20048;-82
2022/08/28 08:04:18;;;;;;;0.00;0.00;;;17.60;99.90;;;;;;4917850;29;20047;-82
2022/08/28 08:06:45;;;;;;;0.00;0.00;;;17.50;99.90;;;;;;4931227;29;20047;-82
2022/08/28 08:09:15;;;;;;;0.00;0.00;;;17.40;99.90;;;;;;4921196;29;20048;-83
2022/08/28 08:11:42;;;;;;;0.00;0.00;;;17.50;99.90;;;;;;4923968;29;20048;-82
2022/08/28 08:14:11;;;;;;;0.00;0.00;;;17.50;99.90;;;;;;4911957;29;20091;-82
2022/08/28 08:16:39;;;;;;;0.00;0.00;;;17.40;99.90;;;;;;4914012;29;20056;-82
2022/08/28 08:19:12;;;;;;;0.00;0.00;;;17.30;99.90;;;;;;4913251;29;20048;-83
2022/08/28 08:21:40;;;;;;;0.00;0.00;;;17.30;99.90;;;;;;4930658;29;20044;-82
2022/08/28 08:24:07;;;;;;;0.00;0.00;;;17.30;99.90;;;;;;4913333;29;20489;-83
2022/08/28 08:26:35;;;;;;;0.00;0.00;;;17.20;99.90;;;;;;4913583;29;20585;-83
2022/08/28 08:29:02;;;;;;;0.00;0.00;;;17.00;99.90;;;;;;4912642;29;20103;-83
2022/08/28 08:31:32;;;;;;;0.00;0.00;;;17.10;99.90;;;;;;4915335;29;20041;-82
2022/08/28 08:34:03;;;;;;;0.00;0.00;;;17.10;99.90;;;;;;4918659;29;20051;-82
2022/08/28 08:36:32;;;;;;;0.00;0.00;;;17.20;99.90;;;;;;4917445;29;20048;-83
2022/08/28 08:39:00;;;;;;;0.10;0.10;;;17.30;99.90;;;;;;4917499;29;20040;-82
2022/08/28 08:41:37;;;;;;;0.00;0.00;;;17.30;99.90;;;;;;4914863;29;20040;-83
2022/08/28 08:44:09;;;;;;;0.00;0.00;;;17.30;99.80;;;;;;4914398;29;20044;-82
2022/08/28 08:46:43;;;;;;;0.00;0.00;;;17.40;99.70;;;;;;4911001;29;20051;-83
2022/08/28 08:49:17;;;;;;;0.00;0.00;;;17.50;99.70;;;;;;4912988;29;20075;-83
2022/08/28 08:54:25;;;;;;;0.00;0.00;;;17.70;99.00;;;;;;3762638;23;20060;-83
2022/08/28 08:56:54;;;;;;;0.00;0.00;;;17.70;99.40;;;;;;4910891;29;20528;-83
2022/08/28 08:59:24;;;;;;;0.00;0.00;;;17.80;98.90;;;;;;4909974;29;20036;-82
2022/08/28 09:02:04;;;;;;;0.00;0.00;;;17.90;99.10;;;;;;4910573;29;20088;-83
2022/08/28 09:04:39;;;;;;;0.00;0.00;;;18.10;98.80;;;;;;4925105;29;20044;-83
2022/08/28 09:07:12;;;;;;;0.00;0.00;;;18.10;98.70;;;;;;4906195;29;20044;-83
2022/08/28 09:09:42;;;;;;;0.00;0.00;;;18.10;99.00;;;;;;4920404;29;20052;-83
2022/08/28 09:12:14;;;;;;;0.00;0.00;;;17.80;98.80;;;;;;4905911;29;20899;-83
2022/08/28 09:14:48;;;;;;;0.00;0.00;;;17.70;98.80;;;;;;4913387;29;20103;-83
2022/08/28 09:17:18;;;;;;;0.00;0.00;;;17.70;99.00;;;;;;4924849;29;20493;-84
2022/08/28 09:19:45;;;;;;;0.00;0.00;;;17.60;98.60;;;;;;4913809;29;20514;-83
2022/08/28 09:22:12;;;;;;;0.00;0.00;;;17.70;98.70;;;;;;4913406;29;20109;-83
2022/08/28 09:24:40;;;;;;;0.00;0.00;;;17.70;97.80;;;;;;4912469;29;20111;-82
2022/08/28 09:27:23;;;;;;;0.00;0.00;;;17.70;97.90;;;;;;4913884;29;20044;-83
2022/08/28 09:29:56;;;;;;;0.00;0.00;;;17.80;97.20;;;;;;4911873;29;20441;-83
2022/08/28 09:32:33;;;;;;;0.00;0.00;;;17.80;97.40;;;;;;4913462;29;20497;-83
2022/08/28 09:35:10;;;;;;;0.00;0.00;;;18.10;97.80;;;;;;4917760;29;20066;-82
2022/08/28 09:37:37;;;;;;;0.00;0.00;;;18.20;96.80;;;;;;4918610;29;20465;-83
2022/08/28 09:40:21;;;;;;;0.10;0.10;;;18.30;97.30;;;;;;4919744;29;20048;-83
2022/08/28 09:43:27;;;;;;;0.10;0.10;;;18.50;96.60;;;;;;4919033;29;20056;-83
2022/08/28 09:45:58;;;;;;;0.00;0.00;;;18.60;97.50;;;;;;4917022;29;20059;-82
2022/08/28 09:48:33;;;;;;;0.00;0.00;;;18.40;97.30;;;;;;4913923;29;20417;-83
2022/08/28 09:51:02;;;;;;;0.00;0.00;;;18.30;97.60;;;;;;4916939;29;20048;-83
2022/08/28 09:53:36;;;;;;;0.00;0.00;;;18.40;96.80;;;;;;4915532;29;20047;-82
2022/08/28 09:56:12;;;;;;;0.00;0.00;;;18.30;96.30;;;;;;4909159;29;20055;-83
2022/08/28 09:58:41;;;;;;;0.10;0.10;;;18.50;96.60;;;;;;4917860;29;20107;-83
2022/08/28 10:01:33;;;;;;;0.00;0.00;;;18.60;96.30;;;;;;4917155;29;20497;-82
2022/08/28 10:04:15;;;;;;;0.00;0.00;;;18.70;95.90;;;;;;4914776;29;20044;-83
2022/08/28 10:06:47;;;;;;;0.00;0.00;;;18.80;95.50;;;;;;4917333;29;20083;-84
2022/08/28 10:09:25;;;;;;;0.00;0.00;;;18.60;95.50;;;;;;4917277;29;20044;-83
2022/08/28 10:11:59;;;;;;;0.00;0.00;;;18.40;95.30;;;;;;4914430;29;20103;-82
2022/08/28 10:14:48;;;;;;;0.00;0.00;;;18.40;95.30;;;;;;4910164;29;20044;-83
2022/08/28 10:17:24;;;;;;;0.00;0.00;;;18.50;96.50;;;;;;4914755;29;20063;-82
2022/08/28 10:20:01;;;;;;;0.00;0.00;;;18.70;95.20;;;;;;4915977;29;20056;-83
2022/08/28 10:22:34;;;;;;;0.00;0.00;;;18.70;94.80;;;;;;4909405;29;20048;-82
2022/08/28 10:25:19;;;;;;;0.00;0.00;;;19.40;95.80;;;;;;4910991;29;20056;-83
2022/08/28 10:27:56;;;;;;;0.00;0.00;;;19.00;95.20;;;;;;4916716;29;20417;-83
2022/08/28 10:30:24;;;;;;;0.00;0.00;;;18.90;95.10;;;;;;4912835;29;20044;-82
2022/08/28 10:33:04;;;;;;;0.00;0.00;;;18.90;95.30;;;;;;4915395;29;20052;-82
2022/08/28 10:35:40;;;;;;;0.00;0.00;;;19.10;95.60;;;;;;4915829;29;20048;-83
2022/08/28 10:38:11;;;;;;;0.00;0.00;;;19.10;94.90;;;;;;4911152;29;20453;-82
2022/08/28 10:40:39;;;;;;;0.00;0.00;;;19.10;94.80;;;;;;4916696;29;20051;-82
2022/08/28 10:43:12;;;;;;;0.00;0.00;;;19.10;94.70;;;;;;4914559;29;20095;-82
2022/08/28 10:45:40;;;;;;;0.00;0.00;;;18.80;94.30;;;;;;4911601;29;20572;-83
2022/08/28 10:48:16;;;;;;;0.00;0.00;;;18.80;94.20;;;;;;4918279;29;20080;-82
2022/08/28 10:50:49;;;;;;;0.00;0.00;;;18.80;94.20;;;;;;4915962;29;20461;-82
2022/08/28 10:53:19;;;;;;;0.00;0.00;;;18.90;94.40;;;;;;4916750;29;20043;-83
2022/08/28 10:55:53;;;;;;;0.00;0.00;;;18.90;94.70;;;;;;4916640;29;20464;-82
2022/08/28 10:58:24;;;;;;;0.00;0.00;;;19.00;94.60;;;;;;4918137;29;20052;-83
2022/08/28 11:00:54;;;;;;;0.00;0.00;;;19.00;94.20;;;;;;4915624;29;20052;-82
2022/08/28 11:03:24;;;;;;;0.00;0.00;;;19.10;94.50;;;;;;4918001;29;20036;-83
2022/08/28 11:06:10;;;;;;;0.00;0.00;;;19.30;94.40;;;;;;4914756;29;20493;-83
2022/08/28 11:08:38;;;;;;;0.00;0.00;;;19.30;94.50;;;;;;4916614;29;20048;-82
2022/08/28 11:11:11;;;;;;;0.00;0.00;;;19.30;94.20;;;;;;4912628;29;20052;-82
2022/08/28 11:13:54;;;;;;;0.00;0.00;;;19.40;94.60;;;;;;4917018;29;20051;-84
2022/08/28 11:16:34;;;;;;;0.00;0.00;;;19.60;94.10;;;;;;4915510;29;20092;-83
2022/08/28 11:19:17;;;;;;;0.00;0.00;;;19.70;93.90;;;;;;4918333;29;20087;-82
2022/08/28 11:21:49;;;;;;;0.00;0.00;;;19.60;93.10;;;;;;4913016;29;20052;-82
2022/08/28 11:24:29;;;;;;;0.00;0.00;;;19.60;93.30;;;;;;4910679;29;20398;-82
2022/08/28 11:27:06;;;;;;;0.00;0.00;;;19.80;92.20;;;;;;4910626;29;20409;-82
2022/08/28 11:30:00;;;;;;;0.00;0.00;;;19.90;92.80;;;;;;4915945;29;20036;-82
2022/08/28 11:32:37;;;;;;;0.00;0.00;;;20.00;92.70;;;;;;4901878;29;20057;-82
2022/08/28 11:35:44;;;;;;;0.00;0.00;;;20.00;92.50;;;;;;4906422;29;20539;-80
2022/08/28 11:38:50;;;;;;;0.00;0.00;;;19.90;92.30;;;;;;4924277;29;20047;-82
2022/08/28 11:41:21;;;;;;;0.00;0.00;;;20.00;93.00;;;;;;4920065;29;20036;-83
2022/08/28 11:43:51;;;;;;;0.00;0.00;;;19.70;93.10;;;;;;4909941;29;20051;-82
2022/08/28 11:46:29;;;;;;;0.00;0.00;;;19.60;92.70;;;;;;4909092;29;20056;-83
2022/08/28 11:48:57;;;;;;;0.00;0.00;;;19.50;92.90;;;;;;4913037;29;20048;-83
2022/08/28 11:51:52;;;;;;;0.00;0.00;;;19.60;92.30;;;;;;4912989;29;20044;-82
2022/08/28 11:54:38;;;;;;;0.00;0.00;;;19.50;92.20;;;;;;4908137;29;20492;-82
2022/08/28 11:57:09;;;;;;;0.10;0.10;;;19.70;92.00;;;;;;4907499;29;20108;-82
2022/08/28 11:59:53;;;;;;;0.00;0.00;;;19.80;91.40;;;;;;4915542;29;20052;-82
2022/08/28 12:02:48;;;;;;;0.00;0.00;;;19.90;91.90;;;;;;4914298;29;20119;-84
2022/08/28 12:05:40;;;;;;;0.00;0.00;;;20.10;92.70;;;;;;4918852;29;20408;-82
2022/08/28 12:08:11;;;;;;;0.00;0.00;;;20.20;91.20;;;;;;4920165;29;20044;-83
2022/08/28 12:10:55;;;;;;;0.00;0.00;;;20.20;91.00;;;;;;4915001;29;20493;-83
2022/08/28 12:13:42;;;;;;;0.00;0.00;;;20.20;90.70;;;;;;4912900;29;20048;-82
2022/08/28 12:16:08;;;;;;;0.00;0.00;;;20.10;90.80;;;;;;4913431;29;20044;-83
2022/08/28 12:19:01;;;;;;;0.00;0.00;;;20.20;90.90;;;;;;4915108;29;20060;-82
2022/08/28 12:21:33;;;;;;;0.00;0.00;;;20.20;91.00;;;;;;4916172;29;20048;-83
2022/08/28 12:24:02;;;;;;;0.00;0.00;;;20.30;90.70;;;;;;4930462;29;20043;-83
2022/08/28 12:26:42;;;;;;;0.00;0.00;;;20.30;90.80;;;;;;4915438;29;20048;-82
2022/08/28 12:29:25;;;;;;;0.00;0.00;;;20.30;90.40;;;;;;4915980;29;20103;-83
2022/08/28 12:32:17;;;;;;;0.00;0.00;;;20.30;90.50;;;;;;4916273;29;20052;-82
2022/08/28 12:35:07;;;;;;;0.00;0.00;;;20.30;90.30;;;;;;4915371;29;20068;-83
2022/08/28 12:37:35;;;;;;;;;;;20.20;90.40;;;;;;4915859;29;20044;-82
2022/08/28 12:40:22;;;;;;;0.00;0.00;;;20.10;90.60;;;;;;4916579;29;19923;-83
2022/08/28 12:42:53;;;;;;;0.00;0.00;;;20.20;91.30;;;;;;4919959;29;20497;-82
2022/08/28 12:45:25;;;;;;;0.00;0.00;;;20.30;91.10;;;;;;4909567;29;20158;-83
2022/08/28 12:47:56;;;;;;;0.00;0.00;;;20.40;90.20;;;;;;4930063;29;20052;-84
2022/08/28 12:50:27;;;;;;;0.00;0.00;;;20.30;90.20;;;;;;4916425;29;20543;-83
2022/08/28 12:52:56;;;;;;;0.00;0.00;;;20.40;90.40;;;;;;4916334;29;20044;-82
2022/08/28 12:55:23;;;;;;;0.00;0.00;;;20.50;90.60;;;;;;4916458;29;20329;-83
2022/08/28 12:57:52;;;;;;;0.00;0.00;;;20.50;90.00;;;;;;4915024;29;20568;-83
2022/08/28 13:00:22;;;;;;;0.00;0.00;;;20.40;90.10;;;;;;4915264;29;20052;-82
2022/08/28 13:02:52;;;;;;;0.00;0.00;;;20.40;88.40;;;;;;4917307;29;20284;-81
2022/08/28 13:05:31;;;;;;;0.00;0.00;;;20.40;88.90;;;;;;4918902;29;20052;-81
2022/08/28 13:08:00;;;;;;;0.00;0.00;;;20.40;87.30;;;;;;4918168;29;20099;-83
2022/08/28 13:10:30;;;;;;;0.00;0.00;;;20.40;88.20;;;;;;4916687;29;20081;-83
2022/08/28 13:13:01;;;;;;;0.00;0.00;;;20.40;90.10;;;;;;4916272;29;20052;-83